Change the Weather History Date:

Sunday, March 25, 2012

  Actual Average Record
Temperature  
Mean Temperature 46 °F -  
Max Temperature 51 °F 46 °F 67 °F (1976)
Min Temperature 42 °F 25 °F - (2002)
Degree Days  
Heating Degree Days 18    
Moisture  
Dew Point 46 °F    
Average Humidity 87    
Maximum Humidity 94    
Minimum Humidity 71    
Precipitation  
Precipitation 0.03 in - - ()
Sea Level Pressure  
Sea Level Pressure 29.85 in    
Wind  
Wind Speed 7 mph (NW)    
Max Wind Speed 14 mph    
Max Gust Speed -    
Visibility 6 miles    
Events      
Averages and records for this station are not official NWS values.
T = Trace of Precipitation, MM = Missing Value Source: NWS Daily Summary

Daily Weather History Graph

Daily Weather History Graph

Search for Another Location

Airport or City:

Trip Planner

Search our weather history database for the weather conditions in past years. The results will help you decide how hot, cold, wet, or windy it might be!

Date:

Astronomy

Mar. 25, 2012 Rise Set
Actual Time 7:10 AM EDT 7:35 PM EDT
Civil Twilight 6:42 AM EDT 8:03 PM EDT
Nautical Twilight 6:09 AM EDT 8:36 PM EDT
Astronomical Twilight 5:36 AM EDT 9:10 PM EDT
Moon 8:18 AM EDT (3/25) 10:54 PM EDT (3/25)
Length of Visible Light 13h 20m
Length of Day
12h 24m
Waxing Crescent, 8% of the Moon is Illuminated
Mar 25
Waxing Crescent
Mar 30
First Quarter
Apr 6
Full
Apr 13
Last Quarter
Apr 21
New

Hourly Weather History & Observations

Time (EDT) Temp. Windchill Dew Point Humidity Pressure Visibility Wind Dir Wind Speed Gust Speed Precip Events Conditions
12:15 AM 51.8 °F - 50.0 °F 94% 29.85 in 2.0 mi South 8.1 mph - 0.01 in   Overcast
12:35 AM 51.8 °F - 50.0 °F 94% 29.85 in 2.5 mi South 8.1 mph - 0.02 in   Overcast
12:55 AM 51.8 °F - 50.0 °F 94% 29.85 in 3.0 mi South 10.4 mph - 0.02 in   Overcast
1:15 AM 51.8 °F - 50.0 °F 94% 29.84 in 2.0 mi SSW 8.1 mph - N/A   Overcast
1:35 AM 51.8 °F - 50.0 °F 94% 29.84 in 2.0 mi South 8.1 mph - N/A   Overcast
1:55 AM 51.8 °F - 50.0 °F 94% 29.84 in 3.0 mi South 6.9 mph - N/A   Overcast
2:15 AM 51.8 °F - 50.0 °F 94% 29.83 in 3.0 mi South 3.5 mph - N/A   Overcast
2:35 AM 51.8 °F - 50.0 °F 94% 29.82 in 1.8 mi South 4.6 mph - N/A   Overcast
2:55 AM 51.8 °F - 48.2 °F 88% 29.83 in 1.0 mi South 5.8 mph - N/A   Overcast
3:35 AM 51.8 °F - 48.2 °F 88% 29.83 in 3.0 mi SSW 6.9 mph - N/A   Overcast
3:55 AM 51.8 °F - 48.2 °F 88% 29.82 in 3.0 mi SSW 5.8 mph - N/A   Overcast
4:15 AM 51.8 °F - 48.2 °F 88% 29.82 in 3.0 mi SW 5.8 mph - N/A   Overcast
4:35 AM 51.8 °F - 50.0 °F 94% 29.82 in 2.0 mi SW 4.6 mph - N/A   Overcast
4:55 AM 51.8 °F - 48.2 °F 88% 29.82 in 1.0 mi WSW 3.5 mph - N/A   Overcast
5:15 AM 51.8 °F - 50.0 °F 94% 29.82 in 1.8 mi WSW 4.6 mph - N/A   Overcast
5:35 AM 51.8 °F - 50.0 °F 94% 29.82 in 4.0 mi West 4.6 mph - N/A   Overcast
5:55 AM 51.8 °F - 50.0 °F 94% 29.82 in 5.0 mi WNW 4.6 mph - 0.01 in   Overcast
6:15 AM 51.8 °F - 48.2 °F 88% 29.82 in 3.0 mi WNW 4.6 mph - N/A   Overcast
6:35 AM 50.0 °F - 48.2 °F 94% 29.83 in 2.0 mi West 4.6 mph - N/A   Overcast
6:55 AM 50.0 °F - 48.2 °F 94% 29.84 in 0.8 mi WNW 6.9 mph - N/A   Overcast
7:15 AM 48.2 °F - 46.4 °F 93% 29.84 in 0.5 mi NNW 9.2 mph - N/A   Overcast
7:35 AM 46.4 °F 41.9 °F 44.6 °F 93% 29.84 in 2.0 mi NW 9.2 mph - N/A   Overcast
7:55 AM 46.4 °F 42.9 °F 44.6 °F 93% 29.85 in 2.5 mi NW 6.9 mph - N/A   Overcast
8:15 AM 46.4 °F 41.9 °F 42.8 °F 87% 29.86 in 1.5 mi North 9.2 mph - N/A   Overcast
8:35 AM 44.6 °F 40.2 °F 42.8 °F 93% 29.86 in 0.8 mi North 8.1 mph - N/A   Overcast
8:55 AM 42.8 °F 37.5 °F 39.2 °F 87% 29.86 in 5.0 mi North 9.2 mph - N/A   Overcast
9:15 AM 42.8 °F 39.3 °F 39.2 °F 87% 29.86 in 4.0 mi North 5.8 mph - N/A   Overcast
9:35 AM 42.8 °F 40.1 °F 39.2 °F 87% 29.87 in 10.0 mi North 4.6 mph - N/A   Overcast
9:55 AM 42.8 °F 40.1 °F 41.0 °F 93% 29.87 in 9.0 mi NNW 4.6 mph - N/A   Overcast
10:15 AM 44.6 °F 41.4 °F 42.8 °F 93% 29.87 in 10.0 mi North 5.8 mph - N/A   Overcast
10:35 AM 44.6 °F 39.7 °F 42.8 °F 93% 29.87 in 10.0 mi North 9.2 mph - N/A   Overcast
10:55 AM 44.6 °F 40.2 °F 42.8 °F 93% 29.87 in 10.0 mi North 8.1 mph - N/A   Overcast
11:15 AM 46.4 °F 41.9 °F 44.6 °F 93% 29.87 in 10.0 mi North 9.2 mph - N/A   Overcast
11:35 AM 46.4 °F 42.4 °F 42.8 °F 87% 29.87 in 10.0 mi North 8.1 mph - N/A   Mostly Cloudy
11:55 AM 46.4 °F 42.4 °F 42.8 °F 87% 29.87 in 10.0 mi NNW 8.1 mph - N/A   Overcast
12:15 PM 48.2 °F - 42.8 °F 82% 29.87 in 10.0 mi NNW 5.8 mph - N/A   Overcast
12:35 PM 51.8 °F - 44.6 °F 76% 29.86 in 10.0 mi NNW 4.6 mph - N/A   Overcast
12:55 PM 51.8 °F - 44.6 °F 76% 29.86 in 10.0 mi North 6.9 mph - N/A   Overcast
1:15 PM 51.8 °F - 44.6 °F 76% 29.87 in 10.0 mi North 13.8 mph - N/A   Overcast
1:35 PM 51.8 °F - 44.6 °F 76% 29.87 in 10.0 mi NNW 12.7 mph - N/A   Overcast
1:55 PM 51.8 °F - 44.6 °F 76% 29.87 in 10.0 mi NW 12.7 mph - N/A   Overcast
2:15 PM 51.8 °F - 42.8 °F 71% 29.87 in 10.0 mi NNW 9.2 mph - N/A   Overcast
2:35 PM 51.8 °F - 44.6 °F 76% 29.86 in 10.0 mi North 10.4 mph - N/A   Overcast
2:55 PM 51.8 °F - 44.6 °F 76% 29.86 in 10.0 mi North 9.2 mph - N/A   Overcast
3:15 PM 50.0 °F - 42.8 °F 76% 29.87 in 10.0 mi North 10.4 mph - N/A   Overcast
3:35 PM 50.0 °F - 42.8 °F 76% 29.87 in 8.0 mi NNW 10.4 mph - N/A   Overcast
3:55 PM 48.2 °F - 42.8 °F 82% 29.87 in 7.0 mi North 8.1 mph - N/A   Overcast
4:15 PM 48.2 °F - 44.6 °F 87% 29.86 in 5.0 mi North 4.6 mph - N/A   Overcast
4:35 PM 48.2 °F - 44.6 °F 87% 29.87 in 5.0 mi North 8.1 mph - N/A   Overcast
4:55 PM 50.0 °F - 44.6 °F 82% 29.87 in 5.0 mi NNW 4.6 mph - N/A   Overcast
5:15 PM 51.8 °F - 44.6 °F 76% 29.87 in 7.0 mi WNW 5.8 mph - N/A   Overcast
5:35 PM 51.8 °F - 44.6 °F 76% 29.87 in 8.0 mi West 3.5 mph - N/A   Overcast
5:55 PM 50.0 °F - 44.6 °F 82% 29.87 in 8.0 mi West 6.9 mph - N/A   Mostly Cloudy
6:15 PM 51.8 °F - 44.6 °F 76% 29.87 in 9.0 mi WSW 6.9 mph - N/A   Overcast
6:35 PM 51.8 °F - 44.6 °F 76% 29.86 in 9.0 mi West 5.8 mph - N/A   Overcast
6:55 PM 51.8 °F - 46.4 °F 82% 29.87 in 9.0 mi WSW 6.9 mph - N/A   Overcast
7:15 PM 51.8 °F - 46.4 °F 82% 29.87 in 8.0 mi WSW 5.8 mph - N/A   Overcast
7:35 PM 50.0 °F - 46.4 °F 87% 29.87 in 7.0 mi West 6.9 mph - N/A   Overcast
7:55 PM 51.8 °F - 46.4 °F 82% 29.87 in 6.0 mi West 12.7 mph - N/A   Overcast
8:15 PM 50.0 °F - 46.4 °F 87% 29.87 in 7.0 mi West 11.5 mph - N/A   Scattered Clouds
8:35 PM 48.2 °F - 44.6 °F 87% 29.88 in 7.0 mi WSW 11.5 mph - N/A   Scattered Clouds
8:55 PM 48.2 °F - 44.6 °F 87% 29.89 in 9.0 mi West 11.5 mph - N/A   Scattered Clouds
9:15 PM 48.2 °F - 44.6 °F 87% 29.90 in 10.0 mi WNW 9.2 mph - N/A   Mostly Cloudy
9:55 PM 48.2 °F - 42.8 °F 82% 29.91 in 10.0 mi NW 13.8 mph 18.4 mph N/A   Partly Cloudy
10:15 PM 48.2 °F - 39.2 °F 71% 29.91 in 10.0 mi NNW 12.7 mph 18.4 mph N/A   Clear
10:35 PM 48.2 °F - 37.4 °F 66% 29.91 in 10.0 mi NNW 10.4 mph - N/A   Clear
10:55 PM 46.4 °F 40.4 °F 33.8 °F 62% 29.92 in 10.0 mi NNW 13.8 mph - N/A   Clear
11:15 PM 46.4 °F 41.9 °F 33.8 °F 62% 29.92 in 10.0 mi NW 9.2 mph - N/A   Clear
11:35 PM 46.4 °F 40.4 °F 30.2 °F 53% 29.92 in 10.0 mi NW 13.8 mph 21.9 mph N/A   Clear
11:55 PM 46.4 °F 40.7 °F 28.4 °F 50% 29.93 in 10.0 mi NW 12.7 mph 19.6 mph N/A   Clear